createdAt,value
2022-12-20T00:00:51.644Z,59.41
2022-12-20T00:03:18.623Z,59.41
2022-12-20T00:05:45.562Z,59.79
2022-12-20T00:08:12.433Z,59.91
2022-12-20T00:10:40.363Z,59.81
2022-12-20T00:13:07.492Z,59.85
2022-12-20T00:15:34.550Z,59.88
2022-12-20T00:18:01.786Z,59.42
2022-12-20T00:20:28.767Z,59.46
2022-12-20T00:22:55.919Z,59.90
2022-12-20T00:25:22.935Z,59.91
2022-12-20T00:27:49.887Z,59.63
2022-12-20T00:30:17.350Z,59.85
2022-12-20T00:32:44.841Z,59.73
2022-12-20T00:35:11.862Z,59.52
2022-12-20T00:37:38.795Z,59.69
2022-12-20T00:40:06.583Z,59.68
2022-12-20T00:42:33.629Z,59.53
2022-12-20T00:45:00.518Z,59.81
2022-12-20T00:47:27.343Z,59.63
2022-12-20T00:49:54.114Z,59.88
2022-12-20T00:52:20.978Z,59.77
2022-12-20T00:54:47.906Z,59.87
2022-12-20T00:57:14.807Z,59.75
2022-12-20T00:59:41.667Z,59.61
2022-12-20T01:02:08.724Z,59.84
2022-12-20T01:04:35.775Z,59.74
2022-12-20T01:07:02.773Z,59.85
2022-12-20T01:09:29.649Z,59.75
2022-12-20T01:11:56.453Z,59.56
2022-12-20T01:14:23.275Z,59.75
2022-12-20T01:16:50.195Z,59.43
2022-12-20T01:19:18.150Z,59.68
2022-12-20T01:21:45.342Z,59.92
2022-12-20T01:24:13.196Z,59.86
2022-12-20T01:26:40.020Z,60.27
2022-12-20T01:29:06.969Z,59.83
2022-12-20T01:31:35.060Z,60.26
2022-12-20T01:34:02.337Z,60.05
2022-12-20T01:36:31.732Z,60.00
2022-12-20T01:38:59.494Z,60.07
2022-12-20T01:41:27.772Z,60.26
2022-12-20T01:43:55.592Z,59.91
2022-12-20T01:46:23.697Z,60.10
2022-12-20T01:48:54.486Z,60.44
2022-12-20T01:51:21.594Z,60.41
2022-12-20T01:53:51.464Z,60.08
2022-12-20T01:56:18.265Z,60.48
2022-12-20T01:58:49.174Z,60.07
2022-12-20T02:01:16.011Z,60.24
2022-12-20T02:03:43.616Z,60.62
2022-12-20T02:06:13.584Z,60.70
2022-12-20T02:08:40.477Z,60.54
2022-12-20T02:11:10.384Z,60.55
2022-12-20T02:13:40.241Z,60.62
2022-12-20T02:16:07.063Z,60.69
2022-12-20T02:18:34.291Z,60.46
2022-12-20T02:21:05.687Z,60.21
2022-12-20T02:23:33.794Z,60.37
2022-12-20T02:26:03.983Z,60.27
2022-12-20T02:28:33.873Z,60.18
2022-12-20T02:31:03.262Z,60.20
2022-12-20T02:33:30.209Z,60.52
2022-12-20T02:35:57.123Z,60.33
2022-12-20T02:38:25.824Z,60.70
2022-12-20T02:40:55.038Z,60.28
2022-12-20T02:43:25.922Z,60.46
2022-12-20T02:45:53.618Z,60.46
2022-12-20T02:48:21.599Z,60.33
2022-12-20T02:50:51.957Z,60.42
2022-12-20T02:53:18.941Z,60.33
2022-12-20T02:55:49.222Z,60.42
2022-12-20T02:58:22.783Z,60.32
2022-12-20T03:00:51.721Z,60.53
2022-12-20T03:03:21.761Z,60.38
2022-12-20T03:05:49.425Z,60.27
2022-12-20T03:08:16.500Z,60.27
2022-12-20T03:10:43.997Z,60.33
2022-12-20T03:13:10.822Z,60.46
2022-12-20T03:15:37.792Z,60.37
2022-12-20T03:18:05.277Z,60.58
2022-12-20T03:20:32.122Z,60.49
2022-12-20T03:22:58.896Z,60.65
2022-12-20T03:25:25.843Z,60.75
2022-12-20T03:27:52.667Z,60.70
2022-12-20T03:30:19.570Z,60.64
2022-12-20T03:32:46.581Z,60.99
2022-12-20T03:35:13.427Z,61.07
2022-12-20T03:37:40.240Z,61.13
2022-12-20T03:40:07.943Z,60.63
2022-12-20T03:42:34.827Z,60.70
2022-12-20T03:45:01.850Z,60.66
2022-12-20T03:47:29.058Z,61.07
2022-12-20T03:49:55.871Z,60.63
2022-12-20T03:52:22.780Z,60.65
2022-12-20T03:54:49.840Z,60.48
2022-12-20T03:57:16.779Z,60.53
2022-12-20T03:59:43.935Z,60.75
2022-12-20T04:02:10.979Z,60.65
2022-12-20T04:04:37.956Z,60.73
2022-12-20T04:07:04.787Z,61.06
2022-12-20T04:09:31.604Z,60.89
2022-12-20T04:11:58.403Z,61.12
2022-12-20T04:14:25.221Z,60.69
2022-12-20T04:16:52.042Z,60.93
2022-12-20T04:19:18.970Z,60.70
2022-12-20T04:21:46.066Z,61.10
2022-12-20T04:24:12.911Z,60.83
2022-12-20T04:26:39.788Z,61.01
2022-12-20T04:29:06.606Z,61.04
2022-12-20T04:31:33.647Z,61.09
2022-12-20T04:34:00.563Z,60.68
2022-12-20T04:36:27.442Z,60.69
2022-12-20T04:38:54.347Z,61.10
2022-12-20T04:41:24.374Z,60.90
2022-12-20T04:43:52.194Z,60.84
2022-12-20T04:46:19.534Z,60.74
2022-12-20T04:48:57.260Z,60.85
2022-12-20T04:51:25.574Z,60.62
2022-12-20T04:53:52.330Z,61.03
2022-12-20T04:56:21.636Z,60.75
2022-12-20T04:58:49.382Z,61.01
2022-12-20T05:01:36.160Z,60.85
2022-12-20T05:04:03.245Z,61.13
2022-12-20T05:06:30.132Z,61.21
2022-12-20T05:08:56.954Z,60.79
2022-12-20T05:11:23.767Z,60.75
2022-12-20T05:13:50.639Z,60.86
2022-12-20T05:16:17.486Z,61.13
2022-12-20T05:18:48.863Z,61.19
2022-12-20T05:21:19.831Z,61.01
2022-12-20T05:23:50.004Z,61.06
2022-12-20T05:26:17.941Z,61.07
2022-12-20T05:28:45.094Z,61.21
2022-12-20T05:31:12.013Z,60.85
2022-12-20T05:33:38.907Z,61.29
2022-12-20T05:36:06.091Z,61.15
2022-12-20T05:38:32.904Z,61.24
2022-12-20T05:40:59.811Z,60.96
2022-12-20T05:43:26.626Z,61.19
2022-12-20T05:45:53.754Z,60.97
2022-12-20T05:48:20.810Z,61.11
2022-12-20T05:50:47.963Z,61.03
2022-12-20T05:53:15.492Z,61.07
2022-12-20T05:55:45.369Z,60.97
2022-12-20T05:58:13.889Z,61.17
2022-12-20T06:00:41.522Z,60.95
2022-12-20T06:03:09.804Z,61.48
2022-12-20T06:05:37.181Z,61.46
2022-12-20T06:08:04.807Z,61.53
2022-12-20T06:10:31.907Z,61.24
2022-12-20T06:12:58.851Z,61.29
2022-12-20T06:15:25.708Z,61.37
2022-12-20T06:17:52.506Z,61.43
2022-12-20T06:20:19.418Z,61.40
2022-12-20T06:22:46.257Z,61.57
2022-12-20T06:25:15.335Z,61.57
2022-12-20T06:27:42.507Z,61.65
2022-12-20T06:30:10.114Z,61.74
2022-12-20T06:32:37.347Z,61.63
2022-12-20T06:35:04.648Z,61.82
2022-12-20T06:37:32.372Z,61.83
2022-12-20T06:40:00.284Z,61.41
2022-12-20T06:42:27.115Z,61.94
2022-12-20T06:44:54.424Z,62.01
2022-12-20T06:47:21.428Z,61.64
2022-12-20T06:49:48.286Z,61.50
2022-12-20T06:52:15.140Z,61.56
2022-12-20T06:54:41.942Z,61.54
2022-12-20T06:57:09.070Z,61.39
2022-12-20T06:59:35.867Z,61.44
2022-12-20T07:02:25.310Z,61.39
2022-12-20T07:04:54.361Z,61.29
2022-12-20T07:07:21.194Z,61.10
2022-12-20T07:09:48.138Z,61.26
2022-12-20T07:12:14.980Z,61.00
2022-12-20T07:14:41.817Z,60.96
2022-12-20T07:17:08.807Z,60.75
2022-12-20T07:19:36.649Z,60.99
2022-12-20T07:22:04.477Z,60.51
2022-12-20T07:24:31.446Z,60.58
2022-12-20T07:26:58.604Z,60.54
2022-12-20T07:29:26.162Z,60.41
2022-12-20T07:31:53.303Z,60.50
2022-12-20T07:34:20.410Z,60.32
2022-12-20T07:36:47.429Z,60.32
2022-12-20T07:39:14.486Z,60.16
2022-12-20T07:41:41.311Z,60.29
2022-12-20T07:44:08.495Z,60.08
2022-12-20T07:46:35.442Z,60.20
2022-12-20T07:49:02.378Z,60.10
2022-12-20T07:51:31.585Z,59.61
2022-12-20T07:54:00.891Z,59.62
2022-12-20T07:56:29.064Z,59.57
2022-12-20T07:58:59.707Z,59.71
2022-12-20T08:01:28.636Z,59.69
2022-12-20T08:03:58.985Z,59.56
2022-12-20T08:06:26.242Z,59.48
2022-12-20T08:08:55.198Z,59.29
2022-12-20T08:11:23.275Z,59.62
2022-12-20T08:13:55.736Z,59.42
2022-12-20T08:16:24.956Z,59.18
2022-12-20T08:18:51.889Z,59.39
2022-12-20T08:21:19.484Z,59.10
2022-12-20T08:23:46.403Z,59.19
2022-12-20T08:26:13.242Z,58.94
2022-12-20T08:28:40.128Z,58.95
2022-12-20T08:31:08.027Z,59.03
2022-12-20T08:33:36.036Z,58.84
2022-12-20T08:36:05.477Z,58.87
2022-12-20T08:38:33.021Z,59.25
2022-12-20T08:41:02.954Z,59.06
2022-12-20T08:43:30.638Z,59.09
2022-12-20T08:45:57.654Z,58.65
2022-12-20T08:48:24.666Z,58.75
2022-12-20T08:50:54.709Z,58.98
2022-12-20T08:53:21.657Z,58.84
2022-12-20T08:55:48.725Z,58.83
2022-12-20T08:58:16.179Z,58.58
2022-12-20T09:00:43.044Z,58.40
2022-12-20T09:03:11.962Z,58.25
2022-12-20T09:05:45.091Z,58.58
2022-12-20T09:08:12.053Z,58.45
2022-12-20T09:10:38.928Z,58.21
2022-12-20T09:13:05.848Z,58.17
2022-12-20T09:15:34.714Z,58.45
2022-12-20T09:18:02.231Z,58.34
2022-12-20T09:20:29.510Z,58.02
2022-12-20T09:22:57.031Z,58.22
2022-12-20T09:25:24.204Z,57.72
2022-12-20T09:27:51.197Z,58.13
2022-12-20T09:30:18.276Z,57.71
2022-12-20T09:32:46.092Z,57.90
2022-12-20T09:35:16.564Z,57.55
2022-12-20T09:37:46.248Z,57.79
2022-12-20T09:40:18.047Z,57.40
2022-12-20T09:42:45.294Z,57.33
2022-12-20T09:45:19.841Z,57.67
2022-12-20T09:47:46.880Z,57.32
2022-12-20T09:50:17.250Z,57.50
2022-12-20T09:52:47.280Z,57.33
2022-12-20T09:55:24.478Z,57.06
2022-12-20T09:57:52.713Z,57.47
2022-12-20T10:00:20.130Z,57.42
2022-12-20T10:03:02.101Z,57.42
2022-12-20T10:05:41.526Z,57.31
2022-12-20T10:08:12.078Z,57.06
2022-12-20T10:10:42.204Z,57.10
2022-12-20T10:13:12.126Z,57.14
2022-12-20T10:15:41.645Z,56.81
2022-12-20T10:18:11.939Z,57.19
2022-12-20T10:20:47.389Z,57.06
2022-12-20T10:23:18.008Z,56.80
2022-12-20T10:25:46.606Z,56.98
2022-12-20T10:28:15.770Z,56.66
2022-12-20T10:30:43.469Z,56.75
2022-12-20T10:33:17.655Z,57.00
2022-12-20T10:35:44.611Z,56.57
2022-12-20T10:38:32.120Z,56.98
2022-12-20T10:44:07.710Z,56.89
2022-12-20T10:46:38.401Z,56.53
2022-12-20T10:49:08.378Z,56.67
2022-12-20T10:51:35.250Z,56.68
2022-12-20T10:54:04.232Z,56.73
2022-12-20T10:56:32.290Z,56.28
2022-12-20T10:58:59.752Z,56.37
2022-12-20T11:01:28.661Z,56.65
2022-12-20T11:03:58.104Z,56.23
2022-12-20T11:06:27.751Z,56.41
2022-12-20T11:09:12.720Z,56.52
2022-12-20T11:11:39.692Z,56.27
2022-12-20T11:14:14.366Z,56.38
2022-12-20T11:16:42.011Z,56.07
2022-12-20T11:19:12.024Z,56.21
2022-12-20T11:21:41.989Z,55.78
2022-12-20T11:24:17.723Z,55.89
2022-12-20T11:26:47.723Z,56.15
2022-12-20T11:29:14.898Z,55.71
2022-12-20T11:31:44.844Z,55.83
2022-12-20T11:34:14.825Z,55.67
2022-12-20T11:39:26.768Z,55.78
2022-12-20T11:41:56.682Z,55.44
2022-12-20T11:44:27.783Z,55.71
2022-12-20T11:46:58.068Z,55.40
2022-12-20T11:49:28.184Z,55.37
2022-12-20T11:51:58.083Z,55.42
2022-12-20T11:54:27.982Z,55.42
2022-12-20T11:56:58.797Z,55.46
2022-12-20T11:59:28.777Z,55.44
2022-12-20T12:01:58.821Z,55.13
2022-12-20T12:04:27.905Z,55.28
2022-12-20T12:07:02.064Z,55.02
2022-12-20T12:09:32.119Z,55.12
2022-12-20T12:12:07.874Z,55.33
2022-12-20T12:14:42.200Z,55.02
2022-12-20T12:17:13.076Z,54.73
2022-12-20T12:19:42.538Z,54.97
2022-12-20T12:22:13.875Z,54.85
2022-12-20T12:24:42.904Z,54.71
2022-12-20T12:27:16.394Z,54.76
2022-12-20T12:29:43.495Z,54.56
2022-12-20T12:32:17.702Z,54.53
2022-12-20T12:34:46.024Z,54.44
2022-12-20T12:37:14.424Z,54.45
2022-12-20T12:39:44.500Z,54.71
2022-12-20T12:42:14.555Z,54.40
2022-12-20T12:44:47.326Z,54.48
2022-12-20T12:47:17.841Z,54.30
2022-12-20T12:49:48.883Z,54.72
2022-12-20T12:52:18.948Z,54.34
2022-12-20T12:54:45.990Z,54.52
2022-12-20T12:57:16.099Z,54.44
2022-12-20T12:59:46.243Z,54.23
2022-12-20T13:02:15.258Z,54.40
2022-12-20T13:04:45.671Z,54.26
2022-12-20T13:07:15.684Z,54.35
2022-12-20T13:09:43.308Z,54.09
2022-12-20T13:12:13.451Z,54.28
2022-12-20T13:14:40.734Z,54.12
2022-12-20T13:17:13.156Z,53.92
2022-12-20T13:19:45.209Z,54.19
2022-12-20T13:22:12.663Z,53.69
2022-12-20T13:24:42.728Z,54.03
2022-12-20T13:27:12.702Z,53.70
2022-12-20T13:29:51.383Z,53.75
2022-12-20T13:32:21.327Z,53.69
2022-12-20T13:34:51.252Z,53.69
2022-12-20T13:37:21.240Z,53.66
2022-12-20T13:39:48.582Z,53.48
2022-12-20T13:42:20.938Z,53.18
2022-12-20T13:44:48.797Z,53.27
2022-12-20T13:47:17.180Z,53.01
2022-12-20T13:49:44.246Z,53.29
2022-12-20T13:52:32.499Z,53.50
2022-12-20T13:55:01.081Z,53.21
2022-12-20T13:57:28.550Z,53.20
2022-12-20T14:00:03.497Z,53.40
2022-12-20T14:02:37.026Z,53.06
2022-12-20T14:05:08.307Z,53.25
2022-12-20T14:07:35.344Z,53.11
2022-12-20T14:10:02.962Z,52.71
2022-12-20T14:12:36.435Z,52.85
2022-12-20T14:15:03.958Z,53.01
2022-12-20T14:17:32.568Z,53.08
2022-12-20T14:20:02.648Z,52.86
2022-12-20T14:22:29.725Z,52.96
2022-12-20T14:24:56.865Z,52.90
2022-12-20T14:27:24.232Z,52.67
2022-12-20T14:29:52.751Z,52.63
2022-12-20T14:32:20.304Z,52.38
2022-12-20T14:34:48.022Z,52.70
2022-12-20T14:37:17.995Z,52.69
2022-12-20T14:39:48.053Z,52.89
2022-12-20T14:42:19.128Z,52.45
2022-12-20T14:44:47.707Z,52.65
2022-12-20T14:47:17.223Z,52.40
2022-12-20T14:49:47.249Z,52.51
2022-12-20T14:52:15.685Z,52.60
2022-12-20T14:57:39.442Z,52.32
2022-12-20T15:00:09.580Z,52.33
2022-12-20T15:02:39.798Z,52.19
2022-12-20T15:05:26.774Z,52.08
2022-12-20T15:07:53.879Z,52.42
2022-12-20T15:10:20.847Z,52.04
2022-12-20T15:12:47.784Z,52.28
2022-12-20T15:15:30.001Z,52.18
2022-12-20T15:17:57.222Z,52.08
2022-12-20T15:20:24.097Z,52.13
2022-12-20T15:22:51.082Z,52.35
2022-12-20T15:25:18.138Z,52.10
2022-12-20T15:27:45.227Z,52.03
2022-12-20T15:30:14.177Z,52.41
2022-12-20T15:32:54.570Z,52.21
2022-12-20T15:35:22.776Z,52.33
2022-12-20T15:37:49.681Z,52.33
2022-12-20T15:40:16.717Z,52.16
2022-12-20T15:42:44.225Z,51.79
2022-12-20T15:45:14.142Z,52.24
2022-12-20T15:47:41.050Z,51.85
2022-12-20T15:50:08.818Z,51.83
2022-12-20T15:52:35.764Z,51.98
2022-12-20T15:55:02.700Z,51.89
2022-12-20T15:57:30.439Z,52.10
2022-12-20T16:00:00.921Z,52.00
2022-12-20T16:02:29.410Z,52.10
2022-12-20T16:04:56.954Z,52.07
2022-12-20T16:07:24.410Z,51.96
2022-12-20T16:09:51.479Z,51.84
2022-12-20T16:12:20.416Z,52.14
2022-12-20T16:14:47.848Z,51.92
2022-12-20T16:17:15.631Z,51.86
2022-12-20T16:19:43.470Z,51.94
2022-12-20T16:22:13.484Z,51.89
2022-12-20T16:24:40.445Z,52.03
2022-12-20T16:27:07.420Z,52.08
2022-12-20T16:29:34.786Z,51.86
2022-12-20T16:32:01.961Z,51.65
2022-12-20T16:34:28.992Z,52.05
2022-12-20T16:36:55.954Z,52.11
2022-12-20T16:39:23.297Z,51.64
2022-12-20T16:41:50.158Z,51.69
2022-12-20T16:44:17.431Z,51.82
2022-12-20T16:46:45.882Z,51.89
2022-12-20T16:49:19.805Z,51.76
2022-12-20T16:51:48.410Z,52.05
2022-12-20T16:54:20.954Z,51.81
2022-12-20T16:56:49.629Z,51.98
2022-12-20T16:59:19.859Z,52.10
2022-12-20T17:01:49.292Z,51.90
2022-12-20T17:04:17.769Z,51.83
2022-12-20T17:06:45.089Z,52.09
2022-12-20T17:09:12.513Z,51.94
2022-12-20T17:11:39.499Z,51.83
2022-12-20T17:14:12.320Z,51.95
2022-12-20T17:16:40.117Z,51.60
2022-12-20T17:19:07.034Z,51.78
2022-12-20T17:24:06.790Z,51.80
2022-12-20T17:26:34.324Z,51.98
2022-12-20T17:29:01.431Z,51.80
2022-12-20T17:31:28.916Z,51.60
2022-12-20T17:33:56.572Z,51.87
2022-12-20T17:36:23.425Z,51.69
2022-12-20T17:38:51.117Z,51.95
2022-12-20T17:41:22.101Z,51.88
2022-12-20T17:43:49.177Z,51.51
2022-12-20T17:46:16.082Z,51.79
2022-12-20T17:48:44.099Z,51.81
2022-12-20T17:51:14.598Z,51.64
2022-12-20T17:53:41.563Z,51.54
2022-12-20T17:56:12.659Z,51.48
2022-12-20T17:58:39.623Z,51.48
2022-12-20T18:01:06.574Z,51.63
2022-12-20T18:04:02.860Z,51.55
2022-12-20T18:06:21.025Z,51.63
2022-12-20T18:08:50.075Z,51.59
2022-12-20T18:11:17.697Z,51.45
2022-12-20T18:13:45.605Z,51.88
2022-12-20T18:16:13.554Z,51.42
2022-12-20T18:18:40.639Z,51.51
2022-12-20T18:21:08.844Z,51.56
2022-12-20T18:23:36.671Z,51.88
2022-12-20T18:26:13.007Z,51.67
2022-12-20T18:28:40.703Z,51.52
2022-12-20T18:31:08.764Z,51.73
2022-12-20T18:33:35.909Z,51.48
2022-12-20T18:36:04.569Z,51.73
2022-12-20T18:38:32.162Z,51.50
2022-12-20T18:41:00.328Z,51.34
2022-12-20T18:43:27.944Z,51.61
2022-12-20T18:45:55.345Z,51.73
2022-12-20T18:48:23.914Z,51.74
2022-12-20T18:50:50.802Z,51.34
2022-12-20T18:53:17.848Z,51.71
2022-12-20T18:55:44.762Z,51.58
2022-12-20T18:58:11.619Z,51.23
2022-12-20T19:00:41.344Z,51.38
2022-12-20T19:03:08.424Z,51.37
2022-12-20T19:05:35.605Z,51.34
2022-12-20T19:08:02.494Z,51.49
2022-12-20T19:10:32.324Z,51.31
2022-12-20T19:13:05.263Z,51.47
2022-12-20T19:15:32.762Z,51.30
2022-12-20T19:17:59.718Z,51.66
2022-12-20T19:20:26.600Z,51.54
2022-12-20T19:22:53.816Z,51.53
2022-12-20T19:25:21.547Z,51.44
2022-12-20T19:27:48.425Z,51.58
2022-12-20T19:30:15.645Z,51.58
2022-12-20T19:32:42.668Z,51.32
2022-12-20T19:35:45.056Z,51.42
2022-12-20T19:37:56.746Z,51.55
2022-12-20T19:40:23.750Z,51.17
2022-12-20T19:42:50.662Z,51.29
2022-12-20T19:45:17.604Z,51.29
2022-12-20T19:47:44.466Z,51.40
2022-12-20T19:52:52.621Z,51.31
2022-12-20T19:55:19.581Z,51.23
2022-12-20T19:57:46.859Z,51.44
2022-12-20T20:00:14.161Z,51.27
2022-12-20T20:02:41.131Z,51.21
2022-12-20T20:05:14.645Z,51.40
2022-12-20T20:07:42.906Z,51.55
2022-12-20T20:10:10.109Z,51.35
2022-12-20T20:12:38.538Z,51.23
2022-12-20T20:15:05.829Z,51.56
2022-12-20T20:17:32.693Z,51.34
2022-12-20T20:19:59.569Z,51.48
2022-12-20T20:22:26.467Z,51.06
2022-12-20T20:24:53.378Z,51.41
2022-12-20T20:27:20.280Z,51.38
2022-12-20T20:29:49.427Z,51.32
2022-12-20T20:32:16.373Z,51.16
2022-12-20T20:34:43.281Z,51.15
2022-12-20T20:37:10.208Z,51.30
2022-12-20T20:39:37.106Z,51.36
2022-12-20T20:42:04.085Z,50.98
2022-12-20T20:44:30.957Z,51.37
2022-12-20T20:46:57.889Z,51.37
2022-12-20T20:49:24.841Z,50.90
2022-12-20T20:51:51.738Z,51.13
2022-12-20T20:54:18.628Z,51.38
2022-12-20T20:56:45.549Z,50.93
2022-12-20T20:59:17.446Z,50.90
2022-12-20T21:01:45.426Z,51.25
2022-12-20T21:04:12.343Z,51.04
2022-12-20T21:06:41.936Z,51.14
2022-12-20T21:09:09.810Z,50.89
2022-12-20T21:11:37.354Z,51.15
2022-12-20T21:14:04.353Z,51.02
2022-12-20T21:16:31.460Z,51.17
2022-12-20T21:18:59.254Z,50.85
2022-12-20T21:21:26.723Z,51.07
2022-12-20T21:23:54.404Z,50.92
2022-12-20T21:26:22.242Z,50.98
2022-12-20T21:28:49.220Z,51.16
2022-12-20T21:31:17.585Z,50.82
2022-12-20T21:33:46.288Z,51.06
2022-12-20T21:36:14.583Z,51.22
2022-12-20T21:38:41.929Z,50.85
2022-12-20T21:41:11.215Z,50.73
2022-12-20T21:43:38.262Z,51.20
2022-12-20T21:48:47.222Z,50.77
2022-12-20T21:51:15.498Z,50.91
2022-12-20T21:53:44.597Z,50.98
2022-12-20T21:56:11.687Z,50.69
2022-12-20T21:58:38.585Z,50.89
2022-12-20T22:01:08.366Z,50.97
2022-12-20T22:03:36.027Z,51.08
2022-12-20T22:06:02.931Z,50.66
2022-12-20T22:08:29.991Z,50.88
2022-12-20T22:11:00.419Z,51.13
2022-12-20T22:13:27.922Z,50.96
2022-12-20T22:15:55.251Z,51.06
2022-12-20T22:18:22.578Z,50.99
2022-12-20T22:20:49.550Z,51.02
2022-12-20T22:23:16.545Z,50.83
2022-12-20T22:25:43.524Z,50.53
2022-12-20T22:28:10.503Z,50.94
2022-12-20T22:30:40.483Z,50.80
2022-12-20T22:33:07.543Z,50.68
2022-12-20T22:35:34.849Z,50.70
2022-12-20T22:38:02.244Z,50.62
2022-12-20T22:40:29.163Z,50.70
2022-12-20T22:42:56.054Z,50.71
2022-12-20T22:45:23.265Z,50.95
2022-12-20T22:47:50.265Z,50.48
2022-12-20T22:50:17.406Z,50.81
2022-12-20T22:52:44.642Z,50.92
2022-12-20T22:55:12.549Z,50.94
2022-12-20T22:57:39.490Z,50.87
2022-12-20T23:00:07.102Z,50.68
2022-12-20T23:02:34.203Z,50.60
2022-12-20T23:05:01.413Z,50.60
2022-12-20T23:07:28.294Z,50.83
2022-12-20T23:09:55.231Z,50.78
2022-12-20T23:12:25.337Z,50.63
2022-12-20T23:15:00.247Z,50.88
2022-12-20T23:17:32.418Z,50.73
2022-12-20T23:20:02.533Z,50.66
2022-12-20T23:22:32.638Z,50.91
2022-12-20T23:24:59.528Z,50.50
2022-12-20T23:27:26.746Z,50.94
2022-12-20T23:29:53.662Z,50.43
2022-12-20T23:32:20.605Z,50.63
2022-12-20T23:34:47.652Z,50.58
2022-12-20T23:37:14.474Z,50.47
2022-12-20T23:39:41.581Z,50.65
2022-12-20T23:42:08.712Z,50.63
2022-12-20T23:44:35.697Z,50.84
2022-12-20T23:47:02.631Z,50.66
2022-12-20T23:49:29.468Z,50.83
2022-12-20T23:51:56.351Z,50.59
2022-12-20T23:54:23.165Z,50.67
2022-12-20T23:56:50.058Z,50.66
2022-12-20T23:59:17.087Z,50.37
